Amherst, South Dakota
Current Conditions -  °F | °C
As of 7:53 AM on Thursday 23 Oct 2014 (Local Time) from KABR Reporting Station
Clear Clear  
Wind Chill: 26°   Ceiling: Unl
Heat Index: 32°   Visibility: 10mi
Dew Point: 30°   Wind: 7mph
Humidity: 92%   Direction: 160°SSE
Pressure: 29.96"   Gusts: NA
Location:  45.74°N, 97.92°W
Report Text: KABR 231253Z AUTO 16006KT 10SM CLR 00/M01 A2996 RMK AO2 SLP155 T00001011
Loading
Personal Weather Stations






























Interactive Weather Map New forecast layout! Learn more

10-Day Weather Forecast

Advertisements
Track Severe Weather on mobile